createdAt,value
2024-03-07T00:02:25.220Z,28.60
2024-03-07T00:04:51.485Z,27.63
2024-03-07T00:07:17.863Z,29.95
2024-03-07T00:09:44.495Z,28.08
2024-03-07T00:12:10.775Z,28.27
2024-03-07T00:14:36.957Z,30.35
2024-03-07T00:17:03.421Z,29.90
2024-03-07T00:19:29.444Z,29.70
2024-03-07T00:21:56.057Z,29.98
2024-03-07T00:24:22.563Z,29.95
2024-03-07T00:26:49.738Z,30.17
2024-03-07T00:29:15.847Z,30.50
2024-03-07T00:31:41.933Z,31.55
2024-03-07T00:34:13.419Z,31.98
2024-03-07T00:36:43.521Z,33.05
2024-03-07T00:39:09.615Z,33.17
2024-03-07T00:41:35.926Z,31.63
2024-03-07T00:44:02.508Z,32.50
2024-03-07T00:46:28.510Z,33.50
2024-03-07T00:48:54.860Z,33.92
2024-03-07T00:51:20.903Z,34.92
2024-03-07T00:53:46.931Z,33.15
2024-03-07T00:56:13.063Z,33.67
2024-03-07T00:58:39.045Z,32.53
2024-03-07T01:01:05.850Z,34.47
2024-03-07T01:03:31.771Z,34.10
2024-03-07T01:05:57.775Z,33.05
2024-03-07T01:08:23.784Z,34.72
2024-03-07T01:10:49.886Z,34.22
2024-03-07T01:13:15.797Z,34.63
2024-03-07T01:15:42.060Z,35.35
2024-03-07T01:18:08.816Z,34.85
2024-03-07T01:20:34.932Z,36.25
2024-03-07T01:23:00.931Z,35.25
2024-03-07T01:25:27.148Z,34.20
2024-03-07T01:27:53.122Z,35.70
2024-03-07T01:30:19.179Z,34.85
2024-03-07T01:32:45.123Z,35.50
2024-03-07T01:35:12.119Z,34.63
2024-03-07T01:37:38.044Z,35.70
2024-03-07T01:40:04.793Z,35.17
2024-03-07T01:42:30.911Z,35.47
2024-03-07T01:44:57.244Z,34.30
2024-03-07T01:47:23.491Z,32.38
2024-03-07T01:49:49.588Z,32.95
2024-03-07T01:52:17.366Z,32.90
2024-03-07T01:54:43.664Z,34.00
2024-03-07T01:57:09.827Z,33.97
2024-03-07T01:59:35.979Z,36.20
2024-03-07T02:02:02.351Z,35.00
2024-03-07T02:04:28.373Z,35.05
2024-03-07T02:06:54.728Z,36.15
2024-03-07T02:09:21.436Z,36.75
2024-03-07T02:11:48.024Z,36.13
2024-03-07T02:14:14.088Z,36.15
2024-03-07T02:16:40.218Z,37.45
2024-03-07T02:19:07.090Z,37.17
2024-03-07T02:21:33.692Z,36.70
2024-03-07T02:23:59.734Z,38.05
2024-03-07T02:26:25.722Z,36.53
2024-03-07T02:28:51.771Z,36.72
2024-03-07T02:31:17.722Z,37.55
2024-03-07T02:33:43.821Z,36.85
2024-03-07T02:36:09.787Z,37.90
2024-03-07T02:38:36.463Z,37.67
2024-03-07T02:41:02.628Z,39.53
2024-03-07T02:43:28.631Z,39.08
2024-03-07T02:45:54.509Z,38.92
2024-03-07T02:48:20.536Z,37.97
2024-03-07T02:50:46.534Z,38.00
2024-03-07T02:53:12.563Z,37.88
2024-03-07T02:55:39.227Z,38.13
2024-03-07T02:58:05.260Z,37.85
2024-03-07T03:00:31.393Z,38.20
2024-03-07T03:02:57.492Z,38.67
2024-03-07T03:05:23.730Z,38.05
2024-03-07T03:07:50.032Z,38.03
2024-03-07T03:10:16.246Z,40.08
2024-03-07T03:12:42.904Z,40.08
2024-03-07T03:15:09.334Z,38.97
2024-03-07T03:17:35.351Z,39.22
2024-03-07T03:20:01.363Z,39.65
2024-03-07T03:22:27.360Z,41.15
2024-03-07T03:24:53.647Z,39.28
2024-03-07T03:27:19.664Z,37.97
2024-03-07T03:29:46.396Z,37.60
2024-03-07T03:32:12.491Z,40.25
2024-03-07T03:34:38.473Z,38.47
2024-03-07T03:37:04.521Z,38.35
2024-03-07T03:39:30.455Z,40.05
2024-03-07T03:41:56.481Z,39.22
2024-03-07T03:44:22.429Z,38.15
2024-03-07T03:46:49.123Z,38.80
2024-03-07T03:49:15.017Z,38.80
2024-03-07T03:51:40.954Z,38.20
2024-03-07T03:54:06.901Z,38.70
2024-03-07T03:56:32.954Z,39.35
2024-03-07T03:58:58.978Z,39.40
2024-03-07T04:01:25.106Z,37.38
2024-03-07T04:03:51.784Z,38.80
2024-03-07T04:06:19.431Z,38.42
2024-03-07T04:08:45.373Z,39.05
2024-03-07T04:11:11.791Z,40.30
2024-03-07T04:13:37.796Z,39.90
2024-03-07T04:16:04.129Z,39.22
2024-03-07T04:18:30.161Z,38.95
2024-03-07T04:20:56.896Z,39.47
2024-03-07T04:23:22.950Z,40.03
2024-03-07T04:25:48.935Z,40.38
2024-03-07T04:28:14.915Z,38.70
2024-03-07T04:30:41.342Z,38.03
2024-03-07T04:33:07.462Z,39.05
2024-03-07T04:35:33.631Z,38.90
2024-03-07T04:38:00.250Z,37.95
2024-03-07T04:40:26.160Z,39.30
2024-03-07T04:42:52.100Z,39.70
2024-03-07T04:45:18.804Z,37.70
2024-03-07T04:47:45.630Z,40.22
2024-03-07T04:50:12.633Z,38.78
2024-03-07T04:52:38.706Z,39.05
2024-03-07T04:55:06.048Z,39.63
2024-03-07T04:57:32.008Z,40.95
2024-03-07T04:59:58.077Z,39.85
2024-03-07T05:02:24.270Z,38.83
2024-03-07T05:04:50.474Z,38.50
2024-03-07T05:07:16.472Z,38.33
2024-03-07T05:09:42.573Z,39.72
2024-03-07T05:12:09.326Z,38.42
2024-03-07T05:14:35.397Z,38.60
2024-03-07T05:17:01.362Z,38.40
2024-03-07T05:19:27.405Z,39.17
2024-03-07T05:21:53.572Z,38.60
2024-03-07T05:24:19.721Z,38.88
2024-03-07T05:26:45.738Z,37.75
2024-03-07T05:29:12.556Z,38.78
2024-03-07T05:31:39.981Z,39.40
2024-03-07T05:34:05.958Z,37.75
2024-03-07T05:36:31.978Z,38.10
2024-03-07T05:38:58.092Z,37.25
2024-03-07T05:41:24.202Z,38.35
2024-03-07T05:43:50.810Z,38.38
2024-03-07T05:46:17.577Z,40.40
2024-03-07T05:48:43.564Z,39.00
2024-03-07T05:51:09.514Z,40.50
2024-03-07T05:53:35.661Z,40.28
2024-03-07T05:56:01.655Z,38.85
2024-03-07T05:58:27.671Z,39.25
2024-03-07T06:00:53.642Z,39.00
2024-03-07T06:03:20.360Z,40.70
2024-03-07T06:05:46.474Z,39.67
2024-03-07T06:08:12.425Z,37.72
2024-03-07T06:10:38.400Z,39.45
2024-03-07T06:13:10.285Z,39.33
2024-03-07T06:15:38.343Z,39.58
2024-03-07T06:18:05.016Z,39.17
2024-03-07T06:20:31.807Z,39.05
2024-03-07T06:22:57.849Z,39.55
2024-03-07T06:25:23.846Z,39.20
2024-03-07T06:27:49.808Z,40.13
2024-03-07T06:30:16.129Z,39.72
2024-03-07T06:32:42.218Z,40.10
2024-03-07T06:35:08.820Z,39.03
2024-03-07T06:37:35.423Z,40.33
2024-03-07T06:40:01.528Z,40.63
2024-03-07T06:42:27.529Z,38.53
2024-03-07T06:44:53.603Z,40.15
2024-03-07T06:47:19.621Z,39.63
2024-03-07T06:49:45.860Z,39.00
2024-03-07T06:52:11.833Z,38.97
2024-03-07T06:54:38.485Z,37.88
2024-03-07T06:57:05.040Z,39.17
2024-03-07T06:59:31.043Z,38.60
2024-03-07T07:01:58.323Z,40.47
2024-03-07T07:04:24.330Z,39.88
2024-03-07T07:06:50.253Z,38.97
2024-03-07T07:09:19.656Z,40.30
2024-03-07T07:11:47.246Z,36.67
2024-03-07T07:14:13.460Z,40.35
2024-03-07T07:16:39.426Z,41.58
2024-03-07T07:19:05.478Z,40.53
2024-03-07T07:21:31.443Z,41.03
2024-03-07T07:23:57.592Z,41.20
2024-03-07T07:26:23.549Z,40.55
2024-03-07T07:28:50.184Z,40.10
2024-03-07T07:31:16.101Z,40.30
2024-03-07T07:33:42.155Z,40.60
2024-03-07T07:36:08.321Z,37.88
2024-03-07T07:38:34.488Z,39.55
2024-03-07T07:41:00.482Z,38.30
2024-03-07T07:43:33.946Z,41.42
2024-03-07T07:46:08.814Z,39.08
2024-03-07T07:48:34.921Z,38.65
2024-03-07T07:51:01.160Z,41.17
2024-03-07T07:53:27.270Z,38.20
2024-03-07T07:55:53.278Z,37.63
2024-03-07T07:58:19.282Z,40.88
2024-03-07T08:00:45.882Z,41.90
2024-03-07T08:03:12.839Z,38.42
2024-03-07T08:05:39.116Z,37.08
2024-03-07T08:08:07.056Z,36.15
2024-03-07T08:10:35.429Z,37.03
2024-03-07T08:13:02.888Z,35.58
2024-03-07T08:15:30.555Z,35.70
2024-03-07T08:17:58.275Z,32.08
2024-03-07T08:20:27.146Z,32.42
2024-03-07T08:22:54.863Z,35.47
2024-03-07T08:25:23.421Z,31.45
2024-03-07T08:27:50.833Z,32.28
2024-03-07T08:30:17.763Z,29.63
2024-03-07T08:32:45.810Z,29.77
2024-03-07T08:35:12.424Z,29.88
2024-03-07T08:37:40.513Z,28.38
2024-03-07T08:40:11.303Z,27.50
2024-03-07T08:42:37.861Z,26.15
2024-03-07T08:45:12.213Z,28.10
2024-03-07T08:47:52.288Z,26.92
2024-03-07T08:50:31.197Z,29.20
2024-03-07T08:53:04.725Z,28.33
2024-03-07T08:55:31.268Z,27.83
2024-03-07T08:57:57.318Z,29.13
2024-03-07T09:00:23.952Z,28.42
2024-03-07T09:02:50.868Z,28.35
2024-03-07T09:05:17.052Z,27.65
2024-03-07T09:07:43.196Z,27.65
2024-03-07T09:10:10.053Z,27.95
2024-03-07T09:12:36.125Z,27.20
2024-03-07T09:15:02.366Z,25.02
2024-03-07T09:17:28.487Z,28.13
2024-03-07T09:19:54.473Z,28.17
2024-03-07T09:22:20.444Z,28.33
2024-03-07T09:24:46.463Z,25.80
2024-03-07T09:27:13.124Z,26.70
2024-03-07T09:29:39.066Z,26.35
2024-03-07T09:32:05.679Z,24.83
2024-03-07T09:34:31.669Z,25.10
2024-03-07T09:36:57.682Z,23.05
2024-03-07T09:39:23.586Z,22.02
2024-03-07T09:41:50.121Z,22.98
2024-03-07T09:44:19.627Z,20.92
2024-03-07T09:46:47.650Z,21.08
2024-03-07T09:49:14.218Z,21.02
2024-03-07T09:51:40.230Z,20.10
2024-03-07T09:54:06.304Z,19.90
2024-03-07T09:56:32.390Z,20.05
2024-03-07T09:58:58.944Z,18.35
2024-03-07T10:01:27.267Z,18.85
2024-03-07T10:03:58.580Z,18.30
2024-03-07T10:06:25.110Z,17.87
2024-03-07T10:08:51.890Z,18.17
2024-03-07T10:11:17.957Z,17.05
2024-03-07T10:13:43.933Z,16.75
2024-03-07T10:16:09.865Z,16.38
2024-03-07T10:18:42.858Z,16.42
2024-03-07T10:21:09.095Z,16.25
2024-03-07T10:23:35.046Z,17.20
2024-03-07T10:26:01.146Z,16.13
2024-03-07T10:28:27.523Z,16.33
2024-03-07T10:30:53.476Z,16.75
2024-03-07T10:33:20.195Z,15.75
2024-03-07T10:35:48.046Z,15.63
2024-03-07T10:38:15.825Z,15.38
2024-03-07T10:40:43.042Z,14.65
2024-03-07T10:43:10.736Z,14.13
2024-03-07T10:45:44.500Z,14.75
2024-03-07T10:48:12.719Z,13.27
2024-03-07T10:50:54.252Z,13.00
2024-03-07T10:53:29.684Z,11.98
2024-03-07T10:56:17.660Z,13.38
2024-03-07T10:58:55.875Z,12.98
2024-03-07T11:01:23.897Z,12.23
2024-03-07T11:03:50.529Z,11.50
2024-03-07T11:06:18.020Z,12.60
2024-03-07T11:08:44.858Z,11.35
2024-03-07T11:11:11.464Z,11.25
2024-03-07T11:13:38.323Z,12.13
2024-03-07T11:16:06.817Z,11.73
2024-03-07T11:18:32.837Z,12.13
2024-03-07T11:20:59.100Z,12.27
2024-03-07T11:23:26.410Z,11.98
2024-03-07T11:25:54.118Z,12.32
2024-03-07T11:28:29.377Z,12.05
2024-03-07T11:30:55.400Z,12.35
2024-03-07T11:33:21.430Z,11.82
2024-03-07T11:35:49.396Z,12.27
2024-03-07T11:38:15.372Z,12.35
2024-03-07T11:40:44.777Z,12.07
2024-03-07T11:43:12.452Z,12.15
2024-03-07T11:45:38.405Z,11.50
2024-03-07T11:48:05.808Z,13.10
2024-03-07T11:50:31.915Z,12.27
2024-03-07T11:52:57.826Z,12.88
2024-03-07T11:55:24.014Z,12.73
2024-03-07T11:57:51.322Z,12.25
2024-03-07T12:00:18.844Z,12.00
2024-03-07T12:02:45.037Z,11.07
2024-03-07T12:05:11.293Z,12.63
2024-03-07T12:07:37.228Z,11.25
2024-03-07T12:10:03.819Z,11.75
2024-03-07T12:12:30.423Z,11.38
2024-03-07T12:14:57.265Z,11.45
2024-03-07T12:17:24.113Z,12.18
2024-03-07T12:19:50.828Z,12.02
2024-03-07T12:22:19.906Z,12.32
2024-03-07T12:24:45.916Z,11.80
2024-03-07T12:27:13.016Z,11.82
2024-03-07T12:29:40.428Z,11.05
2024-03-07T12:32:07.392Z,11.80
2024-03-07T12:34:33.864Z,12.63
2024-03-07T12:36:59.819Z,12.43
2024-03-07T12:39:26.044Z,11.77
2024-03-07T12:41:52.408Z,12.20
2024-03-07T12:44:18.550Z,12.75
2024-03-07T12:46:47.013Z,12.40
2024-03-07T12:49:13.866Z,12.07
2024-03-07T12:51:39.820Z,11.85
2024-03-07T12:54:05.894Z,11.95
2024-03-07T12:56:31.935Z,12.85
2024-03-07T12:58:57.922Z,13.07
2024-03-07T13:01:23.953Z,13.15
2024-03-07T13:03:50.066Z,12.70
2024-03-07T13:06:16.697Z,11.75
2024-03-07T13:08:42.815Z,13.00
2024-03-07T13:11:08.990Z,13.35
2024-03-07T13:13:34.994Z,12.80
2024-03-07T13:16:01.106Z,11.95
2024-03-07T13:18:27.339Z,12.55
2024-03-07T13:20:53.561Z,12.82
2024-03-07T13:23:20.454Z,12.40
2024-03-07T13:25:46.914Z,11.88
2024-03-07T13:28:15.224Z,11.40
2024-03-07T13:30:41.835Z,10.95
2024-03-07T13:33:07.951Z,11.55
2024-03-07T13:35:34.038Z,10.73
2024-03-07T13:38:00.751Z,11.27
2024-03-07T13:40:27.426Z,10.75
2024-03-07T13:42:54.862Z,9.75
2024-03-07T13:45:22.841Z,9.05
2024-03-07T13:47:49.784Z,10.25
2024-03-07T13:50:19.730Z,11.80
2024-03-07T13:52:50.720Z,12.18
2024-03-07T13:55:16.613Z,11.55
2024-03-07T13:57:48.319Z,11.80
2024-03-07T14:00:32.778Z,12.43
2024-03-07T14:03:31.181Z,12.07
2024-03-07T14:06:00.907Z,12.48
2024-03-07T14:09:06.815Z,12.43
2024-03-07T14:12:03.812Z,13.57
2024-03-07T14:15:14.203Z,13.48
2024-03-07T14:18:04.746Z,13.50
2024-03-07T14:20:53.957Z,13.32
2024-03-07T14:23:38.629Z,14.07
2024-03-07T14:26:37.974Z,13.52
2024-03-07T14:29:17.774Z,14.63
2024-03-07T14:31:43.727Z,15.00
2024-03-07T14:34:14.489Z,13.82
2024-03-07T14:36:44.323Z,14.02
2024-03-07T14:39:10.516Z,14.00
2024-03-07T14:41:50.545Z,14.10
2024-03-07T14:44:17.514Z,13.95
2024-03-07T14:46:44.212Z,14.25
2024-03-07T14:49:15.860Z,14.30
2024-03-07T14:51:48.932Z,13.57
2024-03-07T14:54:21.376Z,13.52
2024-03-07T14:56:47.449Z,12.98
2024-03-07T14:59:13.557Z,13.25
2024-03-07T15:01:39.860Z,13.35
2024-03-07T15:04:05.975Z,12.85
2024-03-07T15:06:32.751Z,13.88
2024-03-07T15:08:58.807Z,13.90
2024-03-07T15:11:31.702Z,13.63
2024-03-07T15:13:58.751Z,12.77
2024-03-07T15:16:32.475Z,13.30
2024-03-07T15:19:00.112Z,13.73
2024-03-07T15:21:26.269Z,14.38
2024-03-07T15:23:53.083Z,14.30
2024-03-07T15:26:19.567Z,13.20
2024-03-07T15:28:45.622Z,14.23
2024-03-07T15:31:11.552Z,13.57
2024-03-07T15:33:37.631Z,13.60
2024-03-07T15:36:03.919Z,14.40
2024-03-07T15:38:29.960Z,13.48
2024-03-07T15:41:03.034Z,13.48
2024-03-07T15:43:29.019Z,12.93
2024-03-07T15:45:55.088Z,12.77
2024-03-07T15:48:24.081Z,13.30
2024-03-07T15:50:51.093Z,12.35
2024-03-07T15:53:17.141Z,11.77
2024-03-07T15:55:43.140Z,11.95
2024-03-07T15:58:09.767Z,11.68
2024-03-07T16:00:36.485Z,11.50
2024-03-07T16:03:04.212Z,11.98
2024-03-07T16:05:31.521Z,11.35
2024-03-07T16:07:59.379Z,12.07
2024-03-07T16:10:28.245Z,11.15
2024-03-07T16:12:54.460Z,11.50
2024-03-07T16:15:25.331Z,12.13
2024-03-07T16:17:55.158Z,10.77
2024-03-07T16:20:21.187Z,10.30
2024-03-07T16:22:47.746Z,10.57
2024-03-07T16:25:13.729Z,9.80
2024-03-07T16:27:39.723Z,10.07
2024-03-07T16:30:06.618Z,9.80
2024-03-07T16:32:34.082Z,8.82
2024-03-07T16:35:01.344Z,8.13
2024-03-07T16:37:27.689Z,8.68
2024-03-07T16:39:53.680Z,8.00
2024-03-07T16:42:19.780Z,6.55
2024-03-07T16:44:45.900Z,7.25
2024-03-07T16:47:12.200Z,6.38
2024-03-07T16:49:39.457Z,6.68
2024-03-07T16:52:05.814Z,6.88
2024-03-07T16:54:31.707Z,7.25
2024-03-07T16:56:57.675Z,6.35
2024-03-07T16:59:23.678Z,6.45
2024-03-07T17:01:49.695Z,6.47
2024-03-07T17:04:15.637Z,6.15
2024-03-07T17:06:42.395Z,6.97
2024-03-07T17:09:08.404Z,6.35
2024-03-07T17:11:34.488Z,6.55
2024-03-07T17:14:00.460Z,6.07
2024-03-07T17:16:26.466Z,6.45
2024-03-07T17:18:52.538Z,6.47
2024-03-07T17:21:18.715Z,7.15
2024-03-07T17:23:45.312Z,6.70
2024-03-07T17:26:11.325Z,6.15
2024-03-07T17:28:37.362Z,7.22
2024-03-07T17:31:03.952Z,6.70
2024-03-07T17:33:30.124Z,6.47
2024-03-07T17:35:56.319Z,7.45
2024-03-07T17:38:22.293Z,6.93
2024-03-07T17:40:49.320Z,7.60
2024-03-07T17:43:15.436Z,7.05
2024-03-07T17:45:41.447Z,7.35
2024-03-07T17:48:08.943Z,6.82
2024-03-07T17:50:36.148Z,7.28
2024-03-07T17:53:04.840Z,7.00
2024-03-07T17:55:34.193Z,7.60
2024-03-07T17:58:02.208Z,7.60
2024-03-07T18:00:28.434Z,7.45
2024-03-07T18:02:54.630Z,7.47
2024-03-07T18:05:20.853Z,8.13
2024-03-07T18:07:47.657Z,8.00
2024-03-07T18:10:13.629Z,8.15
2024-03-07T18:12:39.611Z,8.45
2024-03-07T18:15:16.048Z,7.88
2024-03-07T18:17:47.298Z,9.70
2024-03-07T18:20:13.668Z,8.40
2024-03-07T18:22:39.696Z,8.60
2024-03-07T18:25:06.771Z,9.23
2024-03-07T18:27:32.786Z,8.73
2024-03-07T18:29:58.853Z,8.63
2024-03-07T18:32:25.641Z,8.57
2024-03-07T18:34:51.582Z,8.45
2024-03-07T18:37:17.863Z,8.95
2024-03-07T18:39:43.969Z,8.65
2024-03-07T18:42:10.132Z,8.93
2024-03-07T18:44:36.165Z,9.20
2024-03-07T18:47:02.258Z,8.65
2024-03-07T18:49:29.108Z,9.13
2024-03-07T18:51:55.091Z,9.10
2024-03-07T18:54:21.035Z,9.23
2024-03-07T18:56:47.097Z,9.50
2024-03-07T18:59:13.151Z,9.68
2024-03-07T19:01:39.251Z,10.07
2024-03-07T19:04:05.182Z,10.65
2024-03-07T19:06:36.810Z,11.00
2024-03-07T19:09:03.067Z,11.30
2024-03-07T19:11:29.032Z,12.07
2024-03-07T19:13:55.437Z,12.02
2024-03-07T19:16:21.390Z,12.45
2024-03-07T19:18:47.585Z,12.40
2024-03-07T19:21:13.795Z,12.85
2024-03-07T19:23:40.616Z,13.32
2024-03-07T19:26:06.519Z,14.70
2024-03-07T19:28:32.578Z,14.55
2024-03-07T19:30:58.525Z,13.80
2024-03-07T19:33:24.859Z,14.30
2024-03-07T19:35:52.346Z,14.48
2024-03-07T19:38:18.809Z,14.35
2024-03-07T19:40:45.647Z,15.25
2024-03-07T19:43:11.801Z,14.52
2024-03-07T19:45:41.465Z,16.02
2024-03-07T19:48:08.244Z,15.35
2024-03-07T19:50:34.302Z,16.65
2024-03-07T19:53:00.219Z,18.20
2024-03-07T19:55:26.560Z,17.58
2024-03-07T19:57:53.161Z,17.88
2024-03-07T20:00:19.431Z,18.85
2024-03-07T20:02:46.363Z,18.65
2024-03-07T20:05:13.362Z,19.17
2024-03-07T20:07:39.614Z,20.05
2024-03-07T20:10:06.870Z,18.35
2024-03-07T20:12:34.612Z,19.80
2024-03-07T20:15:01.828Z,19.13
2024-03-07T20:17:27.981Z,19.25
2024-03-07T20:19:54.360Z,20.52
2024-03-07T20:22:20.329Z,20.70
2024-03-07T20:24:47.832Z,19.38
2024-03-07T20:27:13.782Z,20.33
2024-03-07T20:29:39.749Z,20.98
2024-03-07T20:32:06.894Z,21.27
2024-03-07T20:34:33.046Z,21.52
2024-03-07T20:36:59.006Z,22.05
2024-03-07T20:39:25.181Z,21.00
2024-03-07T20:41:51.981Z,21.13
2024-03-07T20:44:18.011Z,23.17
2024-03-07T20:46:43.961Z,22.30
2024-03-07T20:49:10.563Z,21.63
2024-03-07T20:51:36.636Z,22.50
2024-03-07T20:54:02.843Z,20.48
2024-03-07T20:56:28.975Z,21.95
2024-03-07T20:58:54.912Z,22.88
2024-03-07T21:01:20.941Z,23.80
2024-03-07T21:03:47.130Z,21.73
2024-03-07T21:06:13.756Z,21.98
2024-03-07T21:08:40.051Z,24.02
2024-03-07T21:11:06.125Z,22.38
2024-03-07T21:13:32.431Z,22.52
2024-03-07T21:15:58.515Z,24.48
2024-03-07T21:18:24.754Z,23.30
2024-03-07T21:20:51.012Z,24.02
2024-03-07T21:23:17.650Z,23.83
2024-03-07T21:25:43.697Z,24.60
2024-03-07T21:28:09.809Z,25.55
2024-03-07T21:30:35.957Z,23.75
2024-03-07T21:33:02.704Z,23.95
2024-03-07T21:35:28.716Z,24.52
2024-03-07T21:37:54.755Z,23.42
2024-03-07T21:40:21.558Z,24.05
2024-03-07T21:42:47.878Z,24.45
2024-03-07T21:45:13.876Z,23.40
2024-03-07T21:47:41.375Z,22.80
2024-03-07T21:50:09.591Z,23.33
2024-03-07T21:52:35.547Z,21.67
2024-03-07T21:55:01.505Z,23.40
2024-03-07T21:57:28.327Z,23.05
2024-03-07T21:59:54.329Z,21.88
2024-03-07T22:02:21.182Z,21.75
2024-03-07T22:07:16.159Z,22.15
2024-03-07T22:09:42.364Z,22.23
2024-03-07T22:12:08.436Z,20.98
2024-03-07T22:14:35.284Z,22.23
2024-03-07T22:17:01.520Z,21.23
2024-03-07T22:19:27.727Z,21.52
2024-03-07T22:21:53.847Z,20.85
2024-03-07T22:24:19.849Z,20.27
2024-03-07T22:26:45.812Z,21.67
2024-03-07T22:29:11.845Z,21.02
2024-03-07T22:31:39.192Z,19.63
2024-03-07T22:34:05.310Z,20.48
2024-03-07T22:36:31.292Z,19.35
2024-03-07T22:38:57.965Z,20.73
2024-03-07T22:41:23.994Z,19.27
2024-03-07T22:43:50.181Z,19.63
2024-03-07T22:46:16.218Z,20.45
2024-03-07T22:48:42.996Z,20.25
2024-03-07T22:51:09.279Z,18.35
2024-03-07T22:53:35.395Z,19.52
2024-03-07T22:56:01.359Z,19.08
2024-03-07T22:58:27.342Z,18.15
2024-03-07T23:00:53.336Z,18.38
2024-03-07T23:03:19.657Z,17.83
2024-03-07T23:05:46.264Z,18.02
2024-03-07T23:08:12.384Z,18.17
2024-03-07T23:10:38.374Z,18.50
2024-03-07T23:13:04.476Z,17.55
2024-03-07T23:15:30.837Z,17.10
2024-03-07T23:17:58.599Z,16.45
2024-03-07T23:20:27.329Z,16.50
2024-03-07T23:22:55.953Z,17.08
2024-03-07T23:25:22.232Z,16.75
2024-03-07T23:27:48.312Z,15.57
2024-03-07T23:30:14.840Z,15.20
2024-03-07T23:32:40.915Z,16.10
2024-03-07T23:35:07.591Z,17.48
2024-03-07T23:37:33.806Z,16.60
2024-03-07T23:40:00.519Z,15.82
2024-03-07T23:42:26.549Z,17.35
2024-03-07T23:44:52.612Z,16.05
2024-03-07T23:47:18.630Z,15.93
2024-03-07T23:49:44.659Z,16.23
2024-03-07T23:52:10.701Z,15.70
2024-03-07T23:54:36.626Z,16.42
2024-03-07T23:57:04.740Z,16.70
2024-03-07T23:59:30.791Z,15.93
